createdAt,value
2022-08-03T00:01:39.104Z,120.30
2022-08-03T00:04:07.770Z,103.13
2022-08-03T00:06:37.248Z,105.50
2022-08-03T00:09:07.010Z,87.10
2022-08-03T00:11:34.806Z,110.03
2022-08-03T00:14:02.224Z,108.22
2022-08-03T00:16:29.411Z,116.75
2022-08-03T00:18:56.848Z,112.45
2022-08-03T00:21:23.957Z,114.13
2022-08-03T00:23:52.860Z,110.65
2022-08-03T00:26:21.518Z,107.82
2022-08-03T00:28:49.684Z,114.03
2022-08-03T00:31:16.951Z,96.28
2022-08-03T00:33:59.054Z,101.03
2022-08-03T00:36:28.038Z,102.68
2022-08-03T00:38:56.331Z,111.97
2022-08-03T00:41:23.463Z,105.63
2022-08-03T00:43:50.527Z,100.18
2022-08-03T00:46:21.415Z,110.50
2022-08-03T00:48:50.472Z,102.78
2022-08-03T00:51:18.561Z,85.85
2022-08-03T00:53:46.145Z,100.25
2022-08-03T00:56:17.482Z,100.15
2022-08-03T00:58:46.434Z,87.25
2022-08-03T01:01:14.387Z,86.20
2022-08-03T01:03:41.713Z,82.05
2022-08-03T01:06:28.122Z,94.25
2022-08-03T01:09:05.347Z,80.60
2022-08-03T01:12:01.685Z,82.90
2022-08-03T01:14:39.705Z,73.07
2022-08-03T01:17:25.891Z,77.93
2022-08-03T01:20:11.078Z,79.18
2022-08-03T01:22:57.910Z,83.40
2022-08-03T01:25:31.719Z,83.53
2022-08-03T01:28:28.183Z,83.03
2022-08-03T01:30:59.227Z,85.55
2022-08-03T01:33:37.265Z,85.20
2022-08-03T01:36:08.049Z,76.75
2022-08-03T01:38:42.153Z,85.95
2022-08-03T01:41:13.830Z,78.72
2022-08-03T01:44:27.547Z,74.15
2022-08-03T01:46:34.197Z,70.28
2022-08-03T01:49:09.366Z,81.53
2022-08-03T01:51:58.599Z,69.50
2022-08-03T01:54:30.784Z,73.45
2022-08-03T01:56:59.148Z,69.63
2022-08-03T01:59:28.468Z,84.90
2022-08-03T02:02:29.773Z,76.00
2022-08-03T02:04:47.122Z,78.28
2022-08-03T02:07:15.690Z,80.32
2022-08-03T02:09:46.996Z,71.15
2022-08-03T02:12:15.547Z,80.25
2022-08-03T02:14:45.850Z,79.95
2022-08-03T02:17:14.159Z,73.68
2022-08-03T02:19:43.341Z,69.07
2022-08-03T02:22:12.408Z,76.65
2022-08-03T02:24:40.178Z,74.90
2022-08-03T02:27:15.775Z,77.57
2022-08-03T02:29:45.487Z,72.05
2022-08-03T02:32:17.814Z,71.53
2022-08-03T02:34:48.990Z,68.22
2022-08-03T02:37:19.752Z,75.68
2022-08-03T02:39:49.436Z,74.00
2022-08-03T02:42:18.952Z,74.00
2022-08-03T02:44:50.459Z,75.68
2022-08-03T02:49:52.423Z,58.03
2022-08-03T02:52:27.048Z,63.80
2022-08-03T02:54:59.080Z,77.22
2022-08-03T02:57:29.488Z,72.93
2022-08-03T02:59:58.463Z,75.97
2022-08-03T03:02:26.087Z,79.35
2022-08-03T03:05:52.534Z,80.07
2022-08-03T03:07:51.848Z,73.75
2022-08-03T03:10:23.111Z,79.28
2022-08-03T03:12:57.363Z,75.45
2022-08-03T03:15:26.826Z,88.43
2022-08-03T03:17:54.667Z,89.18
2022-08-03T03:20:29.452Z,90.55
2022-08-03T03:23:00.719Z,88.80
2022-08-03T03:25:32.535Z,91.72
2022-08-03T03:28:03.755Z,83.38
2022-08-03T03:30:34.210Z,91.50
2022-08-03T03:33:02.807Z,85.35
2022-08-03T03:35:31.422Z,87.82
2022-08-03T03:38:06.624Z,87.28
2022-08-03T03:40:36.118Z,91.10
2022-08-03T03:43:03.970Z,88.30
2022-08-03T03:45:31.922Z,88.40
2022-08-03T03:48:09.321Z,90.40
2022-08-03T03:50:37.756Z,85.97
2022-08-03T03:53:05.202Z,86.85
2022-08-03T03:55:37.592Z,84.18
2022-08-03T03:58:24.916Z,80.78
2022-08-03T04:00:53.976Z,87.63
2022-08-03T04:03:21.363Z,89.82
2022-08-03T04:06:07.571Z,85.13
2022-08-03T04:08:53.102Z,82.95
2022-08-03T04:11:29.977Z,81.35
2022-08-03T04:14:16.512Z,84.65
2022-08-03T04:16:49.071Z,84.13
2022-08-03T04:19:40.915Z,85.25
2022-08-03T04:22:11.825Z,81.47
2022-08-03T04:24:46.537Z,80.45
2022-08-03T04:27:23.627Z,79.50
2022-08-03T04:29:54.670Z,77.65
2022-08-03T04:32:25.262Z,77.65
2022-08-03T04:37:35.384Z,68.90
2022-08-03T04:40:05.699Z,72.20
2022-08-03T04:42:34.623Z,76.03
2022-08-03T04:45:04.265Z,79.75
2022-08-03T04:47:34.250Z,80.97
2022-08-03T04:50:02.992Z,80.35
2022-08-03T04:52:30.683Z,83.18
2022-08-03T04:54:57.895Z,85.72
2022-08-03T04:57:24.946Z,77.63
2022-08-03T05:00:02.547Z,79.85
2022-08-03T05:02:30.687Z,82.55
2022-08-03T05:04:58.642Z,93.25
2022-08-03T05:07:25.738Z,76.57
2022-08-03T05:10:01.543Z,81.00
2022-08-03T05:12:32.914Z,79.65
2022-08-03T05:15:00.908Z,77.28
2022-08-03T05:17:28.621Z,77.88
2022-08-03T05:19:56.429Z,79.53
2022-08-03T05:22:24.061Z,79.75
2022-08-03T05:24:51.132Z,75.05
2022-08-03T05:27:20.205Z,80.72
2022-08-03T05:29:49.311Z,78.60
2022-08-03T05:32:17.776Z,78.57
2022-08-03T05:34:45.559Z,78.90
2022-08-03T05:37:12.684Z,79.47
2022-08-03T05:39:40.127Z,81.53
2022-08-03T05:42:07.306Z,75.32
2022-08-03T05:44:34.386Z,77.97
2022-08-03T05:47:01.375Z,74.88
2022-08-03T05:49:28.613Z,80.28
2022-08-03T05:52:00.063Z,83.72
2022-08-03T05:54:55.458Z,75.28
2022-08-03T05:57:24.551Z,72.68
2022-08-03T05:59:55.565Z,74.18
2022-08-03T06:02:28.848Z,74.63
2022-08-03T06:04:55.891Z,65.60
2022-08-03T06:07:23.160Z,65.90
2022-08-03T06:10:35.230Z,68.65
2022-08-03T06:12:37.851Z,65.55
2022-08-03T06:15:05.353Z,65.45
2022-08-03T06:17:37.786Z,68.05
2022-08-03T06:20:06.305Z,64.10
2022-08-03T06:22:33.715Z,65.05
2022-08-03T06:25:04.986Z,68.50
2022-08-03T06:27:36.636Z,69.95
2022-08-03T06:30:05.557Z,69.03
2022-08-03T06:32:33.775Z,64.15
2022-08-03T06:35:01.027Z,65.30
2022-08-03T06:37:28.893Z,72.28
2022-08-03T06:39:56.082Z,74.05
2022-08-03T06:42:23.289Z,65.93
2022-08-03T06:44:52.408Z,62.08
2022-08-03T06:47:19.538Z,63.15
2022-08-03T06:50:14.391Z,71.13
2022-08-03T06:52:38.127Z,69.55
2022-08-03T06:55:06.962Z,66.97
2022-08-03T06:57:33.976Z,71.50
2022-08-03T07:00:07.338Z,72.30
2022-08-03T07:02:35.876Z,82.05
2022-08-03T07:05:03.008Z,76.53
2022-08-03T07:07:30.131Z,69.72
2022-08-03T07:09:58.306Z,77.65
2022-08-03T07:12:27.712Z,86.85
2022-08-03T07:15:00.363Z,72.57
2022-08-03T07:17:34.765Z,75.93
2022-08-03T07:20:03.849Z,72.05
2022-08-03T07:22:30.952Z,71.78
2022-08-03T07:24:58.403Z,67.05
2022-08-03T07:27:29.726Z,78.35
2022-08-03T07:29:58.516Z,78.35
2022-08-03T07:32:26.082Z,77.47
2022-08-03T07:34:58.340Z,75.65
2022-08-03T07:37:27.529Z,79.00
2022-08-03T07:39:55.680Z,77.55
2022-08-03T07:42:23.974Z,82.70
2022-08-03T07:44:50.949Z,75.53
2022-08-03T07:47:24.598Z,71.82
2022-08-03T07:49:52.608Z,76.68
2022-08-03T07:52:46.226Z,88.90
2022-08-03T07:55:13.267Z,70.13
2022-08-03T07:57:40.330Z,78.47
2022-08-03T08:00:16.724Z,74.03
2022-08-03T08:02:44.673Z,69.93
2022-08-03T08:05:12.634Z,75.95
2022-08-03T08:07:40.726Z,74.35
2022-08-03T08:10:10.254Z,81.32
2022-08-03T08:12:38.817Z,78.00
2022-08-03T08:15:07.238Z,74.50
2022-08-03T08:17:48.559Z,72.43
2022-08-03T08:20:27.963Z,66.32
2022-08-03T08:22:58.275Z,81.85
2022-08-03T08:25:28.991Z,74.78
2022-08-03T08:28:30.318Z,79.07
2022-08-03T08:30:49.564Z,68.43
2022-08-03T08:33:23.443Z,67.05
2022-08-03T08:35:53.174Z,82.13
2022-08-03T08:38:20.804Z,74.28
2022-08-03T08:40:49.299Z,78.03
2022-08-03T08:43:19.036Z,85.32
2022-08-03T08:45:52.113Z,86.80
2022-08-03T08:48:24.633Z,77.63
2022-08-03T08:50:56.512Z,86.93
2022-08-03T08:53:29.429Z,89.95
2022-08-03T08:56:01.059Z,97.25
2022-08-03T08:58:42.021Z,75.80
2022-08-03T09:01:09.339Z,92.65
2022-08-03T09:03:36.671Z,77.75
2022-08-03T09:06:04.765Z,81.32
2022-08-03T09:08:33.185Z,93.72
2022-08-03T09:11:00.717Z,86.57
2022-08-03T09:13:29.244Z,87.95
2022-08-03T09:16:19.390Z,92.57
2022-08-03T09:18:50.702Z,69.80
2022-08-03T09:21:31.774Z,101.32
2022-08-03T09:24:03.860Z,91.97
2022-08-03T09:26:34.779Z,91.38
2022-08-03T09:29:13.446Z,96.20
2022-08-03T09:31:45.433Z,86.72
2022-08-03T09:34:17.952Z,84.38
2022-08-03T09:36:49.764Z,96.22
2022-08-03T09:39:40.249Z,107.35
2022-08-03T09:42:18.731Z,110.63
2022-08-03T09:44:52.182Z,104.20
2022-08-03T09:47:29.051Z,103.28
2022-08-03T09:50:04.795Z,108.05
2022-08-03T09:52:49.304Z,86.88
2022-08-03T09:56:05.213Z,82.40
2022-08-03T09:58:10.520Z,108.15
2022-08-03T10:00:53.037Z,104.57
2022-08-03T10:03:20.220Z,94.82
2022-08-03T10:05:47.428Z,105.72
2022-08-03T10:08:19.958Z,82.55
2022-08-03T10:10:49.731Z,117.32
2022-08-03T10:13:19.190Z,118.57
2022-08-03T10:16:21.152Z,121.88
2022-08-03T10:18:34.167Z,121.95
2022-08-03T10:21:08.044Z,128.33
2022-08-03T10:23:38.016Z,137.13
2022-08-03T10:26:08.280Z,122.03
2022-08-03T10:28:44.776Z,150.05
2022-08-03T10:31:14.170Z,107.65
2022-08-03T10:33:50.806Z,97.53
2022-08-03T10:36:23.979Z,145.27
2022-08-03T10:38:53.805Z,92.50
2022-08-03T10:41:22.690Z,97.80
2022-08-03T10:44:01.886Z,150.13
2022-08-03T10:46:29.443Z,117.75
2022-08-03T10:48:57.595Z,86.75
2022-08-03T10:51:25.777Z,165.27
2022-08-03T10:53:55.017Z,141.60
2022-08-03T10:56:54.554Z,117.82
2022-08-03T10:59:46.614Z,103.45
2022-08-03T11:02:16.635Z,120.10
2022-08-03T11:04:45.296Z,102.07
2022-08-03T11:07:18.920Z,139.23
2022-08-03T11:09:52.849Z,107.57
2022-08-03T11:12:31.342Z,114.68
2022-08-03T11:15:06.747Z,138.93
2022-08-03T11:17:46.421Z,113.03
2022-08-03T11:20:45.046Z,109.82
2022-08-03T11:23:12.600Z,99.95
2022-08-03T11:26:09.890Z,110.15
2022-08-03T11:28:39.012Z,92.35
2022-08-03T11:31:48.848Z,105.82
2022-08-03T11:34:16.451Z,95.47
2022-08-03T11:37:22.338Z,101.20
2022-08-03T11:39:51.809Z,104.78
2022-08-03T11:42:25.589Z,108.40
2022-08-03T11:44:58.406Z,66.07
2022-08-03T11:47:27.444Z,72.85
2022-08-03T11:49:59.064Z,74.32
2022-08-03T11:52:28.765Z,62.92
2022-08-03T11:54:56.883Z,61.22
2022-08-03T11:59:02.642Z,70.28
2022-08-03T12:00:32.164Z,43.38
2022-08-03T12:03:14.219Z,69.47
2022-08-03T12:05:51.226Z,64.82
2022-08-03T12:08:30.153Z,86.20
2022-08-03T12:11:00.133Z,55.60
2022-08-03T12:16:19.650Z,57.60
2022-08-03T12:19:05.027Z,51.55
2022-08-03T12:21:32.778Z,70.38
2022-08-03T12:24:05.449Z,72.70
2022-08-03T12:26:46.307Z,55.55
2022-08-03T12:29:26.407Z,78.32
2022-08-03T12:31:53.390Z,58.33
2022-08-03T12:34:20.414Z,84.70
2022-08-03T12:36:56.626Z,99.82
2022-08-03T12:39:26.534Z,74.63
2022-08-03T12:41:54.760Z,133.50
2022-08-03T12:44:32.932Z,185.82
2022-08-03T12:47:00.879Z,152.80
2022-08-03T12:49:30.453Z,109.95
2022-08-03T12:52:03.951Z,133.68
2022-08-03T12:54:36.043Z,288.85
2022-08-03T12:57:15.952Z,410.90
2022-08-03T12:59:53.057Z,631.65
2022-08-03T13:02:23.612Z,622.97
2022-08-03T13:04:52.418Z,633.00
2022-08-03T13:07:20.223Z,707.33
2022-08-03T13:09:49.707Z,732.65
2022-08-03T13:12:24.938Z,752.05
2022-08-03T13:15:01.865Z,738.80
2022-08-03T13:17:28.920Z,543.95
2022-08-03T13:19:56.535Z,511.67
2022-08-03T13:22:26.135Z,600.70
2022-08-03T13:24:58.315Z,343.23
2022-08-03T13:28:03.447Z,315.45
2022-08-03T13:30:14.078Z,479.88
2022-08-03T13:32:50.605Z,611.25
2022-08-03T13:35:17.736Z,607.28
2022-08-03T13:37:47.833Z,475.42
2022-08-03T13:40:16.130Z,216.20
2022-08-03T13:42:45.173Z,440.38
2022-08-03T13:45:12.701Z,346.83
2022-08-03T13:47:39.720Z,247.80
2022-08-03T13:50:07.099Z,237.18
2022-08-03T13:52:35.810Z,320.77
2022-08-03T13:55:05.207Z,422.25
2022-08-03T13:58:05.036Z,545.67
2022-08-03T14:00:26.960Z,678.70
2022-08-03T14:03:13.211Z,743.22
2022-08-03T14:05:41.555Z,362.48
2022-08-03T14:08:09.083Z,597.78
2022-08-03T14:10:44.988Z,612.65
2022-08-03T14:13:17.503Z,825.58
2022-08-03T14:15:50.218Z,824.13
2022-08-03T14:18:27.886Z,720.53
2022-08-03T14:21:00.644Z,463.58
2022-08-03T14:23:32.593Z,638.83
2022-08-03T14:26:00.097Z,457.33
2022-08-03T14:28:27.451Z,473.73
2022-08-03T14:30:56.140Z,526.53
2022-08-03T14:33:23.692Z,492.40
2022-08-03T14:35:51.368Z,323.20
2022-08-03T14:38:19.086Z,334.58
2022-08-03T14:40:46.361Z,276.48
2022-08-03T14:43:13.454Z,222.23
2022-08-03T14:45:40.930Z,243.07
2022-08-03T14:50:24.384Z,308.05
2022-08-03T14:50:55.493Z,230.82
2022-08-03T14:53:22.738Z,265.85
2022-08-03T14:55:51.953Z,226.98
2022-08-03T14:58:23.219Z,170.15
2022-08-03T15:00:55.119Z,230.98
2022-08-03T15:03:24.742Z,240.68
2022-08-03T15:05:53.569Z,175.60
2022-08-03T15:08:21.298Z,237.65
2022-08-03T15:10:49.455Z,196.82
2022-08-03T15:13:17.946Z,187.20
2022-08-03T15:15:45.436Z,182.02
2022-08-03T15:18:12.558Z,206.27
2022-08-03T15:20:45.043Z,214.75
2022-08-03T15:23:14.912Z,184.00
2022-08-03T15:26:28.962Z,181.55
2022-08-03T15:28:30.386Z,208.05
2022-08-03T15:30:57.451Z,162.25
2022-08-03T15:33:24.677Z,184.77
2022-08-03T15:35:53.053Z,174.57
2022-08-03T15:38:25.956Z,214.70
2022-08-03T15:40:57.181Z,172.73
2022-08-03T15:43:24.508Z,175.70
2022-08-03T15:46:19.519Z,195.95
2022-08-03T15:48:40.532Z,167.95
2022-08-03T15:51:08.340Z,165.35
2022-08-03T15:53:35.628Z,229.10
2022-08-03T15:56:09.427Z,214.18
2022-08-03T15:59:04.043Z,217.43
2022-08-03T16:01:26.353Z,195.23
2022-08-03T16:03:53.418Z,214.95
2022-08-03T16:06:34.861Z,201.18
2022-08-03T16:09:23.712Z,197.50
2022-08-03T16:11:54.371Z,195.23
2022-08-03T16:14:32.709Z,196.45
2022-08-03T16:17:03.351Z,176.00
2022-08-03T16:19:30.467Z,181.30
2022-08-03T16:21:57.507Z,169.75
2022-08-03T16:24:27.793Z,180.10
2022-08-03T16:26:55.856Z,176.35
2022-08-03T16:29:23.851Z,150.65
2022-08-03T16:31:52.129Z,148.20
2022-08-03T16:34:19.980Z,153.00
2022-08-03T16:36:47.233Z,154.00
2022-08-03T16:39:15.504Z,134.68
2022-08-03T16:41:55.011Z,129.65
2022-08-03T16:44:31.269Z,129.45
2022-08-03T16:46:59.493Z,118.97
2022-08-03T16:49:54.266Z,118.18
2022-08-03T16:52:14.052Z,116.00
2022-08-03T16:54:44.450Z,118.30
2022-08-03T16:57:29.925Z,123.07
2022-08-03T17:00:07.944Z,121.70
2022-08-03T17:02:36.233Z,117.20
2022-08-03T17:05:03.858Z,118.95
2022-08-03T17:07:30.849Z,92.10
2022-08-03T17:09:58.171Z,116.70
2022-08-03T17:12:26.694Z,127.85
2022-08-03T17:14:54.491Z,130.15
2022-08-03T17:17:47.543Z,126.13
2022-08-03T17:20:29.701Z,120.88
2022-08-03T17:23:33.877Z,124.80
2022-08-03T17:26:02.110Z,105.63
2022-08-03T17:28:48.573Z,103.85
2022-08-03T17:31:23.507Z,133.93
2022-08-03T17:34:01.249Z,118.70
2022-08-03T17:39:17.931Z,114.68
2022-08-03T17:41:49.963Z,126.95
2022-08-03T17:44:31.124Z,97.57
2022-08-03T17:47:06.656Z,131.30
2022-08-03T17:49:39.958Z,94.90
2022-08-03T17:52:33.285Z,85.78
2022-08-03T17:55:55.443Z,104.65
2022-08-03T17:58:55.065Z,99.03
2022-08-03T18:01:57.429Z,85.57
2022-08-03T18:04:41.297Z,90.28
2022-08-03T18:07:12.425Z,71.65
2022-08-03T18:10:04.423Z,83.32
2022-08-03T18:12:40.539Z,86.03
2022-08-03T18:15:21.344Z,76.85
2022-08-03T18:17:55.669Z,85.18
2022-08-03T18:20:33.055Z,80.43
2022-08-03T18:23:06.871Z,103.70
2022-08-03T18:25:42.703Z,108.38
2022-08-03T18:28:14.585Z,114.75
2022-08-03T18:30:53.239Z,115.00
2022-08-03T18:34:19.775Z,97.40
2022-08-03T18:36:21.783Z,92.78
2022-08-03T18:38:53.919Z,88.35
2022-08-03T18:41:32.200Z,108.10
2022-08-03T18:44:09.019Z,104.38
2022-08-03T18:47:15.933Z,101.57
2022-08-03T18:50:22.824Z,119.13
2022-08-03T18:53:16.442Z,118.78
2022-08-03T18:56:16.286Z,132.45
2022-08-03T18:59:30.046Z,127.43
2022-08-03T19:02:09.233Z,113.57
2022-08-03T19:04:46.726Z,123.90
2022-08-03T19:07:22.241Z,97.00
2022-08-03T19:09:55.671Z,98.85
2022-08-03T19:12:42.194Z,101.72
2022-08-03T19:15:15.589Z,114.88
2022-08-03T19:17:53.729Z,110.30
2022-08-03T19:20:26.225Z,107.25
2022-08-03T19:22:55.905Z,113.07
2022-08-03T19:28:06.213Z,108.85
2022-08-03T19:30:40.381Z,122.65
2022-08-03T19:33:13.066Z,138.45
2022-08-03T19:35:51.804Z,110.22
2022-08-03T19:38:28.374Z,110.43
2022-08-03T19:41:00.497Z,109.43
2022-08-03T19:43:49.380Z,136.10
2022-08-03T19:46:21.882Z,118.03
2022-08-03T19:48:59.506Z,117.97
2022-08-03T19:52:03.014Z,128.18
2022-08-03T19:54:25.337Z,146.90
2022-08-03T19:56:58.421Z,109.47
2022-08-03T19:59:26.494Z,129.95
2022-08-03T20:01:54.314Z,135.82
2022-08-03T20:04:21.888Z,130.70
2022-08-03T20:06:50.133Z,127.38
2022-08-03T20:09:18.748Z,120.53
2022-08-03T20:11:47.884Z,130.70
2022-08-03T20:14:20.567Z,122.95
2022-08-03T20:16:53.724Z,119.25
2022-08-03T20:19:21.550Z,114.63
2022-08-03T20:21:51.440Z,131.70
2022-08-03T20:24:27.008Z,130.70
2022-08-03T20:26:57.721Z,126.00
2022-08-03T20:32:23.882Z,124.50
2022-08-03T20:34:52.975Z,132.18
2022-08-03T20:37:20.371Z,150.13
2022-08-03T20:39:49.789Z,133.32
2022-08-03T20:42:21.506Z,120.32
2022-08-03T20:45:05.299Z,128.23
2022-08-03T20:47:41.618Z,153.75
2022-08-03T20:50:19.191Z,143.25
2022-08-03T20:52:49.937Z,136.45
2022-08-03T20:55:47.676Z,118.63
2022-08-03T20:58:09.212Z,125.07
2022-08-03T21:00:36.399Z,115.88
2022-08-03T21:03:03.942Z,172.70
2022-08-03T21:05:51.074Z,143.70
2022-08-03T21:08:22.444Z,171.35
2022-08-03T21:10:52.370Z,132.60
2022-08-03T21:13:12.044Z,142.60
2022-08-03T21:13:41.386Z,160.10
2022-08-03T21:16:14.733Z,122.97
2022-08-03T21:18:54.482Z,170.20
2022-08-03T21:21:23.432Z,140.57
2022-08-03T21:23:52.955Z,150.48
2022-08-03T21:26:25.553Z,156.98
2022-08-03T21:28:56.061Z,141.07
2022-08-03T21:31:25.267Z,148.60
2022-08-03T21:33:55.652Z,152.90
2022-08-03T21:36:22.973Z,171.37
2022-08-03T21:38:56.637Z,158.70
2022-08-03T21:41:27.036Z,142.90
2022-08-03T21:43:54.245Z,117.35
2022-08-03T21:46:22.028Z,168.48
2022-08-03T21:48:56.588Z,120.47
2022-08-03T21:51:43.825Z,157.00
2022-08-03T21:54:12.092Z,164.15
2022-08-03T21:56:45.377Z,144.77
2022-08-03T21:59:20.257Z,137.77
2022-08-03T22:01:51.291Z,141.70
2022-08-03T22:04:50.178Z,132.35
2022-08-03T22:07:09.816Z,141.90
2022-08-03T22:09:36.986Z,151.43
2022-08-03T22:12:04.986Z,143.95
2022-08-03T22:14:33.181Z,153.32
2022-08-03T22:17:06.339Z,150.68
2022-08-03T22:19:34.598Z,148.98
2022-08-03T22:22:06.135Z,162.05
2022-08-03T22:24:36.235Z,144.93
2022-08-03T22:27:23.241Z,155.10
2022-08-03T22:29:51.430Z,146.25
2022-08-03T22:32:18.484Z,145.73
2022-08-03T22:34:47.485Z,148.43
2022-08-03T22:37:17.868Z,152.00
2022-08-03T22:39:45.731Z,144.57
2022-08-03T22:42:13.145Z,144.60
2022-08-03T22:44:40.455Z,151.73
2022-08-03T22:47:09.597Z,139.05
2022-08-03T22:49:37.954Z,157.40
2022-08-03T22:52:07.458Z,134.07
2022-08-03T22:54:35.945Z,136.20
2022-08-03T22:57:04.539Z,145.13
2022-08-03T22:59:40.885Z,138.15
2022-08-03T23:02:20.113Z,139.23
2022-08-03T23:04:52.446Z,140.55
2022-08-03T23:07:30.260Z,137.40
2022-08-03T23:09:58.421Z,130.77
2022-08-03T23:12:26.957Z,140.65
2022-08-03T23:15:01.170Z,139.57
2022-08-03T23:17:30.875Z,121.65
2022-08-03T23:20:08.757Z,129.88
2022-08-03T23:22:42.864Z,135.32
2022-08-03T23:25:10.965Z,130.95
2022-08-03T23:27:42.452Z,145.68
2022-08-03T23:30:12.230Z,137.75
2022-08-03T23:32:43.005Z,132.15
2022-08-03T23:36:28.725Z,142.68
2022-08-03T23:38:22.139Z,114.85
2022-08-03T23:40:51.390Z,137.23
2022-08-03T23:43:44.729Z,123.35
2022-08-03T23:46:09.194Z,137.80
2022-08-03T23:48:37.510Z,126.70
2022-08-03T23:51:13.057Z,142.35
2022-08-03T23:54:00.134Z,138.35
2022-08-03T23:56:48.347Z,137.95
2022-08-03T23:59:35.896Z,129.68
